sensor_id;sensor_type;location;lat;lon;timestamp;pressure;altitude;pressure_sealevel;temperature;humidity
51067;BME280;37112;45.892;-123.962;2023-05-29T00:03:16;101718.58;;;15.77;61.07
51067;BME280;37112;45.892;-123.962;2023-05-29T00:05:33;101723.17;;;15.60;61.11
51067;BME280;37112;45.892;-123.962;2023-05-29T00:07:56;101719.92;;;15.61;61.43
51067;BME280;37112;45.892;-123.962;2023-05-29T00:11:02;101721.77;;;15.63;60.98
51067;BME280;37112;45.892;-123.962;2023-05-29T00:13:34;101715.38;;;15.57;61.32
51067;BME280;37112;45.892;-123.962;2023-05-29T00:15:55;101716.34;;;15.53;61.01
51067;BME280;37112;45.892;-123.962;2023-05-29T00:18:24;101712.80;;;15.47;61.60
51067;BME280;37112;45.892;-123.962;2023-05-29T00:20:47;101708.86;;;15.48;61.66
51067;BME280;37112;45.892;-123.962;2023-05-29T00:23:21;101709.62;;;15.42;61.62
51067;BME280;37112;45.892;-123.962;2023-05-29T00:25:53;101708.70;;;15.38;61.61
51067;BME280;37112;45.892;-123.962;2023-05-29T00:28:25;101706.92;;;15.38;61.90
51067;BME280;37112;45.892;-123.962;2023-05-29T00:30:47;101704.90;;;15.41;61.58
51067;BME280;37112;45.892;-123.962;2023-05-29T00:33:17;101711.39;;;15.43;61.57
51067;BME280;37112;45.892;-123.962;2023-05-29T00:35:39;101708.41;;;15.39;61.69
51067;BME280;37112;45.892;-123.962;2023-05-29T00:37:58;101706.58;;;15.37;61.72
51067;BME280;37112;45.892;-123.962;2023-05-29T00:40:22;101705.21;;;15.41;62.18
51067;BME280;37112;45.892;-123.962;2023-05-29T00:42:54;101699.52;;;15.51;62.27
51067;BME280;37112;45.892;-123.962;2023-05-29T00:45:26;101696.47;;;15.53;61.68
51067;BME280;37112;45.892;-123.962;2023-05-29T00:48:00;101691.38;;;15.50;61.34
51067;BME280;37112;45.892;-123.962;2023-05-29T00:50:30;101688.70;;;15.45;61.17
51067;BME280;37112;45.892;-123.962;2023-05-29T00:53:03;101685.89;;;15.36;60.99
51067;BME280;37112;45.892;-123.962;2023-05-29T00:55:30;101686.73;;;15.22;61.31
51067;BME280;37112;45.892;-123.962;2023-05-29T00:57:50;101682.16;;;15.19;61.72
51067;BME280;37112;45.892;-123.962;2023-05-29T01:00:21;101686.77;;;15.22;61.96
51067;BME280;37112;45.892;-123.962;2023-05-29T01:02:53;101680.86;;;15.19;61.69
51067;BME280;37112;45.892;-123.962;2023-05-29T01:05:18;101681.22;;;15.16;62.09
51067;BME280;37112;45.892;-123.962;2023-05-29T01:07:49;101675.80;;;15.15;61.88
51067;BME280;37112;45.892;-123.962;2023-05-29T01:10:19;101673.23;;;15.11;62.31
51067;BME280;37112;45.892;-123.962;2023-05-29T01:12:43;101673.17;;;15.07;62.45
51067;BME280;37112;45.892;-123.962;2023-05-29T01:15:20;101669.84;;;15.03;62.86
51067;BME280;37112;45.892;-123.962;2023-05-29T01:17:47;101667.91;;;15.10;63.12
51067;BME280;37112;45.892;-123.962;2023-05-29T01:20:27;101662.86;;;15.25;62.83
51067;BME280;37112;45.892;-123.962;2023-05-29T01:23:12;101665.92;;;15.36;62.29
51067;BME280;37112;45.892;-123.962;2023-05-29T01:25:55;101667.20;;;15.27;61.90
51067;BME280;37112;45.892;-123.962;2023-05-29T01:28:23;101669.21;;;15.17;61.78
51067;BME280;37112;45.892;-123.962;2023-05-29T01:30:46;101659.61;;;15.19;62.23
51067;BME280;37112;45.892;-123.962;2023-05-29T01:33:17;101658.27;;;15.25;62.07
51067;BME280;37112;45.892;-123.962;2023-05-29T01:35:50;101662.02;;;15.32;61.53
51067;BME280;37112;45.892;-123.962;2023-05-29T01:38:22;101658.77;;;15.35;61.75
51067;BME280;37112;45.892;-123.962;2023-05-29T01:40:46;101661.50;;;15.37;61.65
51067;BME280;37112;45.892;-123.962;2023-05-29T01:43:05;101657.63;;;15.36;61.39
51067;BME280;37112;45.892;-123.962;2023-05-29T01:45:25;101659.73;;;15.37;61.84
51067;BME280;37112;45.892;-123.962;2023-05-29T01:47:54;101660.45;;;15.37;61.63
51067;BME280;37112;45.892;-123.962;2023-05-29T01:50:17;101663.02;;;15.33;61.58
51067;BME280;37112;45.892;-123.962;2023-05-29T01:53:04;101664.47;;;15.28;61.77
51067;BME280;37112;45.892;-123.962;2023-05-29T01:55:37;101662.31;;;15.30;62.32
51067;BME280;37112;45.892;-123.962;2023-05-29T01:58:08;101655.86;;;15.33;62.23
51067;BME280;37112;45.892;-123.962;2023-05-29T02:00:30;101656.70;;;15.41;62.68
51067;BME280;37112;45.892;-123.962;2023-05-29T02:02:48;101659.75;;;15.49;62.44
51067;BME280;37112;45.892;-123.962;2023-05-29T02:05:20;101659.61;;;15.51;62.27
51067;BME280;37112;45.892;-123.962;2023-05-29T02:07:37;101658.95;;;15.54;62.36
51067;BME280;37112;45.892;-123.962;2023-05-29T02:10:08;101658.80;;;15.52;61.94
51067;BME280;37112;45.892;-123.962;2023-05-29T02:12:29;101656.55;;;15.51;62.18
51067;BME280;37112;45.892;-123.962;2023-05-29T02:14:50;101659.55;;;15.51;62.33
51067;BME280;37112;45.892;-123.962;2023-05-29T02:17:07;101655.05;;;15.54;62.07
51067;BME280;37112;45.892;-123.962;2023-05-29T02:19:29;101654.27;;;15.51;61.93
51067;BME280;37112;45.892;-123.962;2023-05-29T02:22:01;101656.80;;;15.50;62.15
51067;BME280;37112;45.892;-123.962;2023-05-29T02:24:33;101656.23;;;15.48;61.72
51067;BME280;37112;45.892;-123.962;2023-05-29T02:26:51;101662.31;;;15.36;61.60
51067;BME280;37112;45.892;-123.962;2023-05-29T02:29:13;101671.84;;;15.27;61.82
51067;BME280;37112;45.892;-123.962;2023-05-29T02:31:33;101670.61;;;15.17;61.79
51067;BME280;37112;45.892;-123.962;2023-05-29T02:34:05;101673.06;;;15.13;62.15
51067;BME280;37112;45.892;-123.962;2023-05-29T02:36:30;101670.77;;;15.08;62.03
51067;BME280;37112;45.892;-123.962;2023-05-29T02:38:53;101673.08;;;15.03;62.39
51067;BME280;37112;45.892;-123.962;2023-05-29T02:41:11;101671.24;;;15.01;62.52
51067;BME280;37112;45.892;-123.962;2023-05-29T02:43:47;101673.66;;;14.92;62.21
51067;BME280;37112;45.892;-123.962;2023-05-29T02:46:18;101672.98;;;14.79;62.27
51067;BME280;37112;45.892;-123.962;2023-05-29T02:48:50;101665.33;;;14.66;62.26
51067;BME280;37112;45.892;-123.962;2023-05-29T02:51:24;101667.23;;;14.54;62.48
51067;BME280;37112;45.892;-123.962;2023-05-29T02:53:58;101663.63;;;14.44;62.62
51067;BME280;37112;45.892;-123.962;2023-05-29T02:56:21;101663.80;;;14.33;62.96
51067;BME280;37112;45.892;-123.962;2023-05-29T02:58:39;101663.00;;;14.32;63.28
51067;BME280;37112;45.892;-123.962;2023-05-29T03:01:00;101662.60;;;14.27;63.31
51067;BME280;37112;45.892;-123.962;2023-05-29T03:05:54;101659.72;;;14.11;63.46
51067;BME280;37112;45.892;-123.962;2023-05-29T03:08:20;101663.07;;;14.04;63.75
51067;BME280;37112;45.892;-123.962;2023-05-29T03:10:53;101660.61;;;13.98;63.93
51067;BME280;37112;45.892;-123.962;2023-05-29T03:13:25;101662.63;;;13.92;64.07
51067;BME280;37112;45.892;-123.962;2023-05-29T03:15:42;101665.61;;;13.85;64.15
51067;BME280;37112;45.892;-123.962;2023-05-29T03:18:14;101665.02;;;13.78;64.28
51067;BME280;37112;45.892;-123.962;2023-05-29T03:20:39;101663.41;;;13.73;64.53
51067;BME280;37112;45.892;-123.962;2023-05-29T03:22:56;101661.27;;;13.67;64.63
51067;BME280;37112;45.892;-123.962;2023-05-29T03:25:21;101663.19;;;13.59;64.82
51067;BME280;37112;45.892;-123.962;2023-05-29T03:27:41;101666.94;;;13.51;64.93
51067;BME280;37112;45.892;-123.962;2023-05-29T03:30:11;101663.67;;;13.41;65.04
51067;BME280;37112;45.892;-123.962;2023-05-29T03:32:42;101669.20;;;13.32;65.20
51067;BME280;37112;45.892;-123.962;2023-05-29T03:35:02;101665.59;;;13.25;65.61
51067;BME280;37112;45.892;-123.962;2023-05-29T03:37:33;101668.52;;;13.15;65.56
51067;BME280;37112;45.892;-123.962;2023-05-29T03:39:54;101671.09;;;13.08;65.87
51067;BME280;37112;45.892;-123.962;2023-05-29T03:42:26;101672.20;;;13.02;65.92
51067;BME280;37112;45.892;-123.962;2023-05-29T03:44:47;101671.33;;;12.98;66.11
51067;BME280;37112;45.892;-123.962;2023-05-29T03:47:07;101668.20;;;12.97;66.21
51067;BME280;37112;45.892;-123.962;2023-05-29T03:49:41;101669.96;;;12.95;66.36
51067;BME280;37112;45.892;-123.962;2023-05-29T03:52:03;101670.67;;;12.89;66.50
51067;BME280;37112;45.892;-123.962;2023-05-29T03:54:35;101673.02;;;12.83;66.79
51067;BME280;37112;45.892;-123.962;2023-05-29T03:57:07;101676.40;;;12.77;66.82
51067;BME280;37112;45.892;-123.962;2023-05-29T03:59:41;101677.32;;;12.74;66.97
51067;BME280;37112;45.892;-123.962;2023-05-29T04:02:12;101674.73;;;12.69;67.13
51067;BME280;37112;45.892;-123.962;2023-05-29T04:04:40;101672.78;;;12.67;67.26
51067;BME280;37112;45.892;-123.962;2023-05-29T04:07:02;101676.34;;;12.64;67.37
51067;BME280;37112;45.892;-123.962;2023-05-29T04:09:31;101676.61;;;12.59;67.42
51067;BME280;37112;45.892;-123.962;2023-05-29T04:11:51;101678.88;;;12.57;67.52
51067;BME280;37112;45.892;-123.962;2023-05-29T04:14:25;101682.83;;;12.54;67.68
51067;BME280;37112;45.892;-123.962;2023-05-29T04:16:51;101682.96;;;12.51;67.79
51067;BME280;37112;45.892;-123.962;2023-05-29T04:19:16;101679.52;;;12.49;68.02
51067;BME280;37112;45.892;-123.962;2023-05-29T04:21:47;101679.52;;;12.49;68.12
51067;BME280;37112;45.892;-123.962;2023-05-29T04:24:12;101677.77;;;12.49;68.19
51067;BME280;37112;45.892;-123.962;2023-05-29T04:26:36;101683.81;;;12.46;68.24
51067;BME280;37112;45.892;-123.962;2023-05-29T04:28:56;101685.19;;;12.44;68.38
51067;BME280;37112;45.892;-123.962;2023-05-29T04:31:20;101685.45;;;12.43;68.59
51067;BME280;37112;45.892;-123.962;2023-05-29T04:33:52;101685.16;;;12.41;68.67
51067;BME280;37112;45.892;-123.962;2023-05-29T04:36:11;101685.81;;;12.39;68.74
51067;BME280;37112;45.892;-123.962;2023-05-29T04:38:36;101685.79;;;12.40;68.87
51067;BME280;37112;45.892;-123.962;2023-05-29T04:41:15;101687.65;;;12.42;69.00
51067;BME280;37112;45.892;-123.962;2023-05-29T04:43:49;101686.03;;;12.45;69.08
51067;BME280;37112;45.892;-123.962;2023-05-29T04:46:14;101684.98;;;12.47;69.11
51067;BME280;37112;45.892;-123.962;2023-05-29T04:48:37;101685.49;;;12.48;69.21
51067;BME280;37112;45.892;-123.962;2023-05-29T04:51:11;101681.39;;;12.45;69.20
51067;BME280;37112;45.892;-123.962;2023-05-29T04:53:44;101677.59;;;12.43;69.26
51067;BME280;37112;45.892;-123.962;2023-05-29T04:56:09;101676.98;;;12.44;69.33
51067;BME280;37112;45.892;-123.962;2023-05-29T04:58:43;101679.30;;;12.44;69.32
51067;BME280;37112;45.892;-123.962;2023-05-29T05:01:03;101680.25;;;12.43;69.46
51067;BME280;37112;45.892;-123.962;2023-05-29T05:03:23;101679.39;;;12.40;69.35
51067;BME280;37112;45.892;-123.962;2023-05-29T05:05:41;101683.05;;;12.38;69.41
51067;BME280;37112;45.892;-123.962;2023-05-29T05:07:57;101682.90;;;12.37;69.57
51067;BME280;37112;45.892;-123.962;2023-05-29T05:10:23;101680.79;;;12.37;69.60
51067;BME280;37112;45.892;-123.962;2023-05-29T05:12:46;101679.73;;;12.37;69.59
51067;BME280;37112;45.892;-123.962;2023-05-29T05:15:16;101682.62;;;12.36;69.60
51067;BME280;37112;45.892;-123.962;2023-05-29T05:17:49;101679.02;;;12.34;69.65
51067;BME280;37112;45.892;-123.962;2023-05-29T05:20:05;101676.10;;;12.32;69.70
51067;BME280;37112;45.892;-123.962;2023-05-29T05:22:23;101678.41;;;12.32;69.83
51067;BME280;37112;45.892;-123.962;2023-05-29T05:24:55;101679.95;;;12.33;69.88
51067;BME280;37112;45.892;-123.962;2023-05-29T05:27:12;101682.82;;;12.33;70.00
51067;BME280;37112;45.892;-123.962;2023-05-29T05:29:45;101677.21;;;12.32;70.09
51067;BME280;37112;45.892;-123.962;2023-05-29T05:32:10;101681.19;;;12.31;70.01
51067;BME280;37112;45.892;-123.962;2023-05-29T05:34:42;101676.45;;;12.30;70.07
51067;BME280;37112;45.892;-123.962;2023-05-29T05:37:00;101673.23;;;12.30;70.07
51067;BME280;37112;45.892;-123.962;2023-05-29T05:39:26;101671.67;;;12.28;70.12
51067;BME280;37112;45.892;-123.962;2023-05-29T05:41:49;101669.22;;;12.28;70.20
51067;BME280;37112;45.892;-123.962;2023-05-29T05:44:21;101665.86;;;12.27;70.26
51067;BME280;37112;45.892;-123.962;2023-05-29T05:46:52;101661.16;;;12.26;70.24
51067;BME280;37112;45.892;-123.962;2023-05-29T05:49:14;101656.26;;;12.25;70.25
51067;BME280;37112;45.892;-123.962;2023-05-29T05:51:36;101649.69;;;12.24;70.45
51067;BME280;37112;45.892;-123.962;2023-05-29T05:54:06;101649.48;;;12.25;70.45
51067;BME280;37112;45.892;-123.962;2023-05-29T05:56:26;101646.56;;;12.23;70.36
51067;BME280;37112;45.892;-123.962;2023-05-29T05:58:57;101651.03;;;12.23;70.47
51067;BME280;37112;45.892;-123.962;2023-05-29T06:01:28;101654.40;;;12.19;70.56
51067;BME280;37112;45.892;-123.962;2023-05-29T06:03:51;101650.70;;;12.16;70.52
51067;BME280;37112;45.892;-123.962;2023-05-29T06:06:10;101654.55;;;12.14;70.61
51067;BME280;37112;45.892;-123.962;2023-05-29T06:08:41;101656.67;;;12.15;70.73
51067;BME280;37112;45.892;-123.962;2023-05-29T06:11:12;101653.86;;;12.14;70.75
51067;BME280;37112;45.892;-123.962;2023-05-29T06:13:31;101653.87;;;12.14;70.80
51067;BME280;37112;45.892;-123.962;2023-05-29T06:16:00;101653.85;;;12.14;70.89
51067;BME280;37112;45.892;-123.962;2023-05-29T06:18:18;101651.63;;;12.13;70.95
51067;BME280;37112;45.892;-123.962;2023-05-29T06:20:40;101650.26;;;12.12;70.99
51067;BME280;37112;45.892;-123.962;2023-05-29T06:22:57;101644.73;;;12.12;70.94
51067;BME280;37112;45.892;-123.962;2023-05-29T06:25:14;101642.16;;;12.13;71.09
51067;BME280;37112;45.892;-123.962;2023-05-29T06:27:32;101635.54;;;12.14;71.02
51067;BME280;37112;45.892;-123.962;2023-05-29T06:29:49;101636.58;;;12.14;71.13
51067;BME280;37112;45.892;-123.962;2023-05-29T06:32:21;101638.00;;;12.14;70.92
51067;BME280;37112;45.892;-123.962;2023-05-29T06:34:46;101637.98;;;12.15;71.08
51067;BME280;37112;45.892;-123.962;2023-05-29T06:37:10;101635.15;;;12.14;71.17
51067;BME280;37112;45.892;-123.962;2023-05-29T06:39:42;101637.02;;;12.13;71.23
51067;BME280;37112;45.892;-123.962;2023-05-29T06:42:00;101634.70;;;12.12;71.09
51067;BME280;37112;45.892;-123.962;2023-05-29T06:44:32;101635.48;;;12.12;71.18
51067;BME280;37112;45.892;-123.962;2023-05-29T06:46:57;101636.89;;;12.11;71.15
51067;BME280;37112;45.892;-123.962;2023-05-29T06:49:21;101638.84;;;12.12;71.34
51067;BME280;37112;45.892;-123.962;2023-05-29T06:51:44;101638.08;;;12.10;71.38
51067;BME280;37112;45.892;-123.962;2023-05-29T06:54:21;101636.25;;;12.08;71.50
51067;BME280;37112;45.892;-123.962;2023-05-29T06:56:39;101632.99;;;12.06;71.47
51067;BME280;37112;45.892;-123.962;2023-05-29T06:59:04;101633.48;;;12.07;71.66
51067;BME280;37112;45.892;-123.962;2023-05-29T07:01:36;101636.51;;;12.07;71.59
51067;BME280;37112;45.892;-123.962;2023-05-29T07:04:01;101632.00;;;12.04;71.52
51067;BME280;37112;45.892;-123.962;2023-05-29T07:06:23;101630.98;;;12.03;71.52
51067;BME280;37112;45.892;-123.962;2023-05-29T07:08:41;101632.81;;;12.03;71.56
51067;BME280;37112;45.892;-123.962;2023-05-29T07:11:09;101626.26;;;11.99;71.46
51067;BME280;37112;45.892;-123.962;2023-05-29T07:13:32;101622.57;;;11.95;71.63
51067;BME280;37112;45.892;-123.962;2023-05-29T07:15:53;101623.58;;;11.93;71.62
51067;BME280;37112;45.892;-123.962;2023-05-29T07:18:27;101623.83;;;11.92;71.69
51067;BME280;37112;45.892;-123.962;2023-05-29T07:20:48;101620.48;;;11.91;71.62
51067;BME280;37112;45.892;-123.962;2023-05-29T07:23:12;101620.85;;;11.91;71.80
51067;BME280;37112;45.892;-123.962;2023-05-29T07:25:33;101620.17;;;11.90;71.84
51067;BME280;37112;45.892;-123.962;2023-05-29T07:28:05;101619.71;;;11.89;71.85
51067;BME280;37112;45.892;-123.962;2023-05-29T07:30:34;101621.13;;;11.86;71.77
51067;BME280;37112;45.892;-123.962;2023-05-29T07:32:51;101621.32;;;11.83;72.24
51067;BME280;37112;45.892;-123.962;2023-05-29T07:35:20;101617.33;;;11.78;71.92
51067;BME280;37112;45.892;-123.962;2023-05-29T07:37:52;101617.27;;;11.76;72.05
51067;BME280;37112;45.892;-123.962;2023-05-29T07:40:22;101612.52;;;11.75;72.24
51067;BME280;37112;45.892;-123.962;2023-05-29T07:42:52;101607.24;;;11.73;72.42
51067;BME280;37112;45.892;-123.962;2023-05-29T07:45:23;101609.08;;;11.72;72.24
51067;BME280;37112;45.892;-123.962;2023-05-29T07:47:52;101605.73;;;11.76;72.32
51067;BME280;37112;45.892;-123.962;2023-05-29T07:50:14;101605.02;;;11.76;72.34
51067;BME280;37112;45.892;-123.962;2023-05-29T07:52:45;101608.27;;;11.78;72.47
51067;BME280;37112;45.892;-123.962;2023-05-29T07:55:12;101608.55;;;11.79;72.54
51067;BME280;37112;45.892;-123.962;2023-05-29T07:57:29;101612.07;;;11.77;72.47
51067;BME280;37112;45.892;-123.962;2023-05-29T07:59:51;101608.39;;;11.72;72.43
51067;BME280;37112;45.892;-123.962;2023-05-29T08:02:14;101609.35;;;11.71;72.50
51067;BME280;37112;45.892;-123.962;2023-05-29T08:04:56;101607.48;;;11.70;72.60
51067;BME280;37112;45.892;-123.962;2023-05-29T08:07:29;101605.84;;;11.67;72.62
51067;BME280;37112;45.892;-123.962;2023-05-29T08:09:46;101606.98;;;11.66;72.71
51067;BME280;37112;45.892;-123.962;2023-05-29T08:12:05;101604.28;;;11.63;72.64
51067;BME280;37112;45.892;-123.962;2023-05-29T08:14:28;101604.85;;;11.63;72.78
51067;BME280;37112;45.892;-123.962;2023-05-29T08:16:45;101599.99;;;11.64;72.78
51067;BME280;37112;45.892;-123.962;2023-05-29T08:19:08;101600.92;;;11.66;72.89
51067;BME280;37112;45.892;-123.962;2023-05-29T08:21:39;101600.17;;;11.66;72.92
51067;BME280;37112;45.892;-123.962;2023-05-29T08:23:56;101597.58;;;11.66;73.01
51067;BME280;37112;45.892;-123.962;2023-05-29T08:26:27;101594.92;;;11.65;72.96
51067;BME280;37112;45.892;-123.962;2023-05-29T08:28:52;101594.30;;;11.67;73.08
51067;BME280;37112;45.892;-123.962;2023-05-29T08:31:24;101592.63;;;11.68;73.08
51067;BME280;37112;45.892;-123.962;2023-05-29T08:33:55;101584.61;;;11.68;73.10
51067;BME280;37112;45.892;-123.962;2023-05-29T08:36:24;101581.34;;;11.69;73.24
51067;BME280;37112;45.892;-123.962;2023-05-29T08:38:57;101582.58;;;11.69;73.21
51067;BME280;37112;45.892;-123.962;2023-05-29T08:41:28;101581.55;;;11.69;73.62
51067;BME280;37112;45.892;-123.962;2023-05-29T08:43:56;101579.13;;;11.68;73.52
51067;BME280;37112;45.892;-123.962;2023-05-29T08:46:28;101580.16;;;11.68;73.75
51067;BME280;37112;45.892;-123.962;2023-05-29T08:48:49;101578.02;;;11.65;73.88
51067;BME280;37112;45.892;-123.962;2023-05-29T08:51:22;101582.01;;;11.61;73.87
51067;BME280;37112;45.892;-123.962;2023-05-29T08:53:57;101580.28;;;11.60;73.82
51067;BME280;37112;45.892;-123.962;2023-05-29T08:56:29;101577.91;;;11.61;73.98
51067;BME280;37112;45.892;-123.962;2023-05-29T08:58:47;101576.52;;;11.61;73.94
51067;BME280;37112;45.892;-123.962;2023-05-29T09:01:19;101578.27;;;11.61;74.00
51067;BME280;37112;45.892;-123.962;2023-05-29T09:03:52;101578.14;;;11.63;74.10
51067;BME280;37112;45.892;-123.962;2023-05-29T09:06:08;101577.80;;;11.66;74.26
51067;BME280;37112;45.892;-123.962;2023-05-29T09:08:41;101581.29;;;11.67;74.26
51067;BME280;37112;45.892;-123.962;2023-05-29T09:11:14;101576.85;;;11.67;74.29
51067;BME280;37112;45.892;-123.962;2023-05-29T09:13:35;101576.16;;;11.67;74.41
51067;BME280;37112;45.892;-123.962;2023-05-29T09:15:59;101578.66;;;11.66;74.33
51067;BME280;37112;45.892;-123.962;2023-05-29T09:18:32;101578.65;;;11.67;74.44
51067;BME280;37112;45.892;-123.962;2023-05-29T09:20:55;101583.14;;;11.66;74.58
51067;BME280;37112;45.892;-123.962;2023-05-29T09:23:20;101581.41;;;11.65;74.59
51067;BME280;37112;45.892;-123.962;2023-05-29T09:25:39;101581.87;;;11.63;74.55
51067;BME280;37112;45.892;-123.962;2023-05-29T09:28:00;101586.33;;;11.63;74.67
51067;BME280;37112;45.892;-123.962;2023-05-29T09:33:00;101582.77;;;11.66;75.17
51067;BME280;37112;45.892;-123.962;2023-05-29T09:35:16;101581.52;;;11.66;74.96
51067;BME280;37112;45.892;-123.962;2023-05-29T09:37:50;101578.35;;;11.66;75.18
51067;BME280;37112;45.892;-123.962;2023-05-29T09:40:21;101579.45;;;11.65;75.21
51067;BME280;37112;45.892;-123.962;2023-05-29T09:42:45;101573.92;;;11.65;75.13
51067;BME280;37112;45.892;-123.962;2023-05-29T09:45:18;101568.81;;;11.65;75.16
51067;BME280;37112;45.892;-123.962;2023-05-29T09:47:53;101567.97;;;11.64;75.26
51067;BME280;37112;45.892;-123.962;2023-05-29T09:50:21;101566.98;;;11.62;75.35
51067;BME280;37112;45.892;-123.962;2023-05-29T09:52:47;101562.41;;;11.62;75.40
51067;BME280;37112;45.892;-123.962;2023-05-29T09:55:19;101563.19;;;11.61;75.42
51067;BME280;37112;45.892;-123.962;2023-05-29T09:57:42;101563.24;;;11.60;75.40
51067;BME280;37112;45.892;-123.962;2023-05-29T10:00:15;101566.38;;;11.61;75.48
51067;BME280;37112;45.892;-123.962;2023-05-29T10:02:38;101562.12;;;11.61;75.68
51067;BME280;37112;45.892;-123.962;2023-05-29T10:05:01;101559.75;;;11.58;75.71
51067;BME280;37112;45.892;-123.962;2023-05-29T10:07:20;101556.73;;;11.58;75.73
51067;BME280;37112;45.892;-123.962;2023-05-29T10:09:47;101557.58;;;11.59;75.74
51067;BME280;37112;45.892;-123.962;2023-05-29T10:12:22;101555.75;;;11.60;75.83
51067;BME280;37112;45.892;-123.962;2023-05-29T10:14:38;101553.38;;;11.61;75.85
51067;BME280;37112;45.892;-123.962;2023-05-29T10:16:53;101550.27;;;11.62;75.91
51067;BME280;37112;45.892;-123.962;2023-05-29T10:19:25;101548.91;;;11.64;75.92
51067;BME280;37112;45.892;-123.962;2023-05-29T10:21:50;101549.47;;;11.67;76.02
51067;BME280;37112;45.892;-123.962;2023-05-29T10:24:08;101549.50;;;11.66;76.06
51067;BME280;37112;45.892;-123.962;2023-05-29T10:26:31;101549.56;;;11.65;75.94
51067;BME280;37112;45.892;-123.962;2023-05-29T10:28:56;101554.33;;;11.66;75.99
51067;BME280;37112;45.892;-123.962;2023-05-29T10:31:33;101551.08;;;11.66;76.04
51067;BME280;37112;45.892;-123.962;2023-05-29T10:33:58;101552.91;;;11.69;76.03
51067;BME280;37112;45.892;-123.962;2023-05-29T10:36:25;101553.23;;;11.72;76.10
51067;BME280;37112;45.892;-123.962;2023-05-29T10:38:51;101555.63;;;11.74;75.94
51067;BME280;37112;45.892;-123.962;2023-05-29T10:43:49;101557.55;;;11.75;75.94
51067;BME280;37112;45.892;-123.962;2023-05-29T10:46:08;101556.56;;;11.73;75.97
51067;BME280;37112;45.892;-123.962;2023-05-29T10:48:50;101560.77;;;11.71;75.84
51067;BME280;37112;45.892;-123.962;2023-05-29T10:51:29;101556.34;;;11.71;76.03
51067;BME280;37112;45.892;-123.962;2023-05-29T10:54:01;101559.67;;;11.72;76.20
51067;BME280;37112;45.892;-123.962;2023-05-29T10:56:30;101562.63;;;11.73;76.28
51067;BME280;37112;45.892;-123.962;2023-05-29T10:58:46;101559.56;;;11.73;76.35
51067;BME280;37112;45.892;-123.962;2023-05-29T11:01:23;101559.27;;;11.72;76.34
51067;BME280;37112;45.892;-123.962;2023-05-29T11:03:55;101557.77;;;11.71;76.34
51067;BME280;37112;45.892;-123.962;2023-05-29T11:06:48;101562.11;;;11.73;76.57
51067;BME280;37112;45.892;-123.962;2023-05-29T11:09:28;101558.84;;;11.74;76.55
51067;BME280;37112;45.892;-123.962;2023-05-29T11:12:22;101552.13;;;11.76;76.59
51067;BME280;37112;45.892;-123.962;2023-05-29T11:15:03;101558.46;;;11.78;76.62
51067;BME280;37112;45.892;-123.962;2023-05-29T11:20:13;101552.67;;;11.76;76.75
51067;BME280;37112;45.892;-123.962;2023-05-29T11:22:56;101554.21;;;11.77;76.81
51067;BME280;37112;45.892;-123.962;2023-05-29T11:25:24;101554.29;;;11.79;76.83
51067;BME280;37112;45.892;-123.962;2023-05-29T11:27:51;101555.37;;;11.78;76.74
51067;BME280;37112;45.892;-123.962;2023-05-29T11:30:20;101555.22;;;11.78;76.91
51067;BME280;37112;45.892;-123.962;2023-05-29T11:32:42;101557.48;;;11.76;76.85
51067;BME280;37112;45.892;-123.962;2023-05-29T11:35:15;101556.38;;;11.73;76.91
51067;BME280;37112;45.892;-123.962;2023-05-29T11:37:48;101558.07;;;11.72;77.19
51067;BME280;37112;45.892;-123.962;2023-05-29T11:40:11;101563.63;;;11.71;77.13
51067;BME280;37112;45.892;-123.962;2023-05-29T11:42:43;101564.66;;;11.68;77.40
51067;BME280;37112;45.892;-123.962;2023-05-29T11:45:15;101569.20;;;11.67;77.30
51067;BME280;37112;45.892;-123.962;2023-05-29T11:47:54;101567.20;;;11.68;77.36
51067;BME280;37112;45.892;-123.962;2023-05-29T11:50:28;101564.95;;;11.67;77.50
51067;BME280;37112;45.892;-123.962;2023-05-29T11:52:48;101568.02;;;11.63;77.49
51067;BME280;37112;45.892;-123.962;2023-05-29T11:55:17;101569.02;;;11.61;77.61
51067;BME280;37112;45.892;-123.962;2023-05-29T11:57:39;101562.01;;;11.59;77.55
51067;BME280;37112;45.892;-123.962;2023-05-29T11:59:57;101563.41;;;11.59;77.81
51067;BME280;37112;45.892;-123.962;2023-05-29T12:02:13;101559.42;;;11.58;77.77
51067;BME280;37112;45.892;-123.962;2023-05-29T12:04:43;101560.66;;;11.58;77.85
51067;BME280;37112;45.892;-123.962;2023-05-29T12:09:43;101553.82;;;11.56;77.81
51067;BME280;37112;45.892;-123.962;2023-05-29T12:12:10;101553.04;;;11.58;77.86
51067;BME280;37112;45.892;-123.962;2023-05-29T12:14:33;101554.35;;;11.59;77.92
51067;BME280;37112;45.892;-123.962;2023-05-29T12:16:59;101554.98;;;11.61;77.83
51067;BME280;37112;45.892;-123.962;2023-05-29T12:19:21;101556.10;;;11.63;77.74
51067;BME280;37112;45.892;-123.962;2023-05-29T12:21:45;101554.02;;;11.62;77.80
51067;BME280;37112;45.892;-123.962;2023-05-29T12:23:59;101553.52;;;11.61;77.68
51067;BME280;37112;45.892;-123.962;2023-05-29T12:26:33;101553.08;;;11.60;77.63
51067;BME280;37112;45.892;-123.962;2023-05-29T12:29:05;101554.40;;;11.58;77.61
51067;BME280;37112;45.892;-123.962;2023-05-29T12:31:36;101557.28;;;11.58;77.57
51067;BME280;37112;45.892;-123.962;2023-05-29T12:33:53;101559.45;;;11.58;77.63